createdAt,value
2023-02-23T00:01:37.121Z,13.95
2023-02-23T00:04:04.646Z,14.21
2023-02-23T00:06:33.154Z,14.30
2023-02-23T00:09:01.205Z,14.32
2023-02-23T00:11:28.514Z,14.47
2023-02-23T00:13:56.910Z,14.48
2023-02-23T00:16:26.051Z,14.48
2023-02-23T00:18:55.389Z,14.55
2023-02-23T00:21:29.939Z,14.55
2023-02-23T00:23:59.002Z,14.43
2023-02-23T00:26:30.809Z,14.22
2023-02-23T00:28:58.290Z,14.15
2023-02-23T00:31:27.279Z,14.36
2023-02-23T00:33:56.214Z,14.46
2023-02-23T00:36:26.256Z,14.43
2023-02-23T00:38:58.123Z,14.38
2023-02-23T00:41:30.785Z,14.46
2023-02-23T00:44:00.603Z,14.48
2023-02-23T00:46:29.930Z,14.50
2023-02-23T00:49:00.119Z,14.56
2023-02-23T00:51:31.012Z,14.32
2023-02-23T00:54:00.405Z,14.42
2023-02-23T00:56:27.930Z,14.35
2023-02-23T00:58:55.150Z,14.23
2023-02-23T01:01:25.627Z,14.28
2023-02-23T01:03:55.491Z,14.44
2023-02-23T01:06:22.750Z,14.29
2023-02-23T01:08:56.606Z,14.30
2023-02-23T01:11:30.930Z,14.22
2023-02-23T01:14:00.014Z,14.25
2023-02-23T01:16:30.231Z,14.02
2023-02-23T01:19:00.036Z,14.23
2023-02-23T01:21:29.867Z,13.91
2023-02-23T01:23:57.100Z,13.95
2023-02-23T01:26:34.015Z,14.22
2023-02-23T01:29:05.845Z,13.86
2023-02-23T01:31:34.114Z,14.15
2023-02-23T01:34:03.081Z,13.91
2023-02-23T01:36:37.124Z,14.02
2023-02-23T01:39:11.992Z,13.77
2023-02-23T01:41:42.364Z,13.99
2023-02-23T01:44:15.405Z,13.72
2023-02-23T01:46:45.227Z,13.50
2023-02-23T01:49:22.358Z,13.68
2023-02-23T01:51:55.551Z,13.65
2023-02-23T01:54:28.943Z,13.86
2023-02-23T01:56:58.763Z,13.86
2023-02-23T01:59:49.179Z,13.66
2023-02-23T02:02:22.148Z,13.89
2023-02-23T02:04:52.309Z,13.98
2023-02-23T02:07:25.828Z,13.90
2023-02-23T02:10:10.838Z,13.76
2023-02-23T02:12:51.981Z,13.86
2023-02-23T02:15:20.812Z,14.14
2023-02-23T02:17:47.448Z,14.02
2023-02-23T02:20:33.220Z,13.84
2023-02-23T02:23:36.533Z,13.82
2023-02-23T02:26:41.364Z,13.76
2023-02-23T02:29:20.279Z,13.84
2023-02-23T02:32:07.903Z,13.74
2023-02-23T02:34:46.795Z,13.77
2023-02-23T02:37:35.292Z,13.51
2023-02-23T02:40:17.193Z,13.54
2023-02-23T02:43:12.390Z,13.67
2023-02-23T02:45:57.094Z,13.68
2023-02-23T02:48:46.643Z,13.72
2023-02-23T02:51:31.532Z,13.68
2023-02-23T02:54:08.776Z,13.84
2023-02-23T02:56:40.373Z,13.74
2023-02-23T02:59:31.068Z,13.78
2023-02-23T03:02:17.302Z,13.57
2023-02-23T03:05:02.846Z,13.66
2023-02-23T03:07:55.687Z,13.46
2023-02-23T03:10:54.675Z,13.50
2023-02-23T03:13:49.260Z,13.53
2023-02-23T03:16:45.519Z,13.56
2023-02-23T03:19:42.796Z,13.60
2023-02-23T03:23:03.096Z,13.55
2023-02-23T03:26:04.199Z,13.62
2023-02-23T03:28:59.540Z,13.79
2023-02-23T03:31:56.092Z,13.80
2023-02-23T03:34:56.254Z,13.85
2023-02-23T03:37:57.065Z,13.93
2023-02-23T03:40:47.893Z,13.97
2023-02-23T03:43:40.704Z,13.92
2023-02-23T03:46:30.043Z,13.88
2023-02-23T03:49:19.031Z,13.87
2023-02-23T03:52:09.171Z,14.02
2023-02-23T03:55:03.066Z,14.13
2023-02-23T03:57:53.619Z,14.19
2023-02-23T04:00:47.128Z,14.13
2023-02-23T04:03:35.678Z,13.97
2023-02-23T04:06:23.094Z,14.01
2023-02-23T04:09:10.090Z,14.04
2023-02-23T04:12:40.733Z,13.77
2023-02-23T04:15:10.802Z,13.79
2023-02-23T04:17:37.626Z,13.92
2023-02-23T04:20:04.607Z,13.80
2023-02-23T04:22:31.346Z,13.68
2023-02-23T04:24:58.162Z,13.59
2023-02-23T04:27:24.832Z,13.62
2023-02-23T04:29:51.629Z,13.76
2023-02-23T04:32:20.804Z,13.93
2023-02-23T04:34:47.592Z,13.98
2023-02-23T04:37:14.585Z,13.99
2023-02-23T04:39:42.847Z,13.91
2023-02-23T04:42:10.148Z,14.02
2023-02-23T04:44:36.799Z,13.96
2023-02-23T04:47:04.062Z,13.89
2023-02-23T04:49:30.885Z,13.81
2023-02-23T04:51:57.539Z,13.72
2023-02-23T04:54:24.214Z,13.62
2023-02-23T04:56:50.970Z,13.58
2023-02-23T04:59:18.418Z,13.57
2023-02-23T05:01:45.328Z,13.48
2023-02-23T05:04:12.401Z,13.36
2023-02-23T05:06:39.214Z,13.27
2023-02-23T05:09:06.922Z,13.22
2023-02-23T05:11:33.622Z,13.09
2023-02-23T05:14:00.408Z,12.98
2023-02-23T05:16:27.940Z,13.01
2023-02-23T05:18:54.643Z,12.94
2023-02-23T05:21:21.407Z,13.07
2023-02-23T05:23:48.452Z,13.11
2023-02-23T05:26:15.457Z,13.19
2023-02-23T05:28:42.967Z,13.22
2023-02-23T05:31:11.103Z,13.27
2023-02-23T05:33:42.394Z,13.30
2023-02-23T05:36:14.129Z,13.28
2023-02-23T05:38:40.928Z,13.40
2023-02-23T05:41:09.370Z,13.51
2023-02-23T05:43:36.247Z,13.59
2023-02-23T05:46:07.957Z,13.68
2023-02-23T05:48:35.020Z,13.65
2023-02-23T05:51:07.867Z,13.70
2023-02-23T05:53:35.211Z,13.72
2023-02-23T05:56:04.028Z,13.69
2023-02-23T05:58:31.512Z,13.69
2023-02-23T06:00:58.301Z,13.73
2023-02-23T06:03:24.989Z,13.79
2023-02-23T06:05:57.550Z,13.76
2023-02-23T06:08:25.585Z,13.68
2023-02-23T06:10:53.300Z,13.67
2023-02-23T06:13:21.245Z,13.72
2023-02-23T06:15:49.319Z,13.70
2023-02-23T06:18:17.532Z,13.72
2023-02-23T06:20:45.800Z,13.69
2023-02-23T06:23:12.996Z,13.72
2023-02-23T06:25:40.388Z,13.74
2023-02-23T06:28:10.551Z,13.72
2023-02-23T06:30:38.983Z,13.64
2023-02-23T06:33:06.893Z,13.71
2023-02-23T06:35:34.802Z,13.74
2023-02-23T06:38:02.560Z,13.80
2023-02-23T06:40:29.269Z,13.68
2023-02-23T06:42:55.982Z,13.66
2023-02-23T06:45:22.815Z,13.48
2023-02-23T06:47:49.610Z,13.39
2023-02-23T06:50:16.955Z,13.15
2023-02-23T06:52:43.559Z,13.34
2023-02-23T06:55:10.292Z,13.50
2023-02-23T06:57:36.981Z,13.51
2023-02-23T07:00:04.838Z,13.65
2023-02-23T07:02:31.766Z,13.65
2023-02-23T07:04:58.937Z,13.73
2023-02-23T07:07:25.698Z,13.81
2023-02-23T07:09:52.332Z,13.88
2023-02-23T07:12:19.508Z,13.94
2023-02-23T07:14:46.317Z,14.11
2023-02-23T07:17:13.091Z,14.22
2023-02-23T07:19:39.950Z,14.32
2023-02-23T07:22:06.621Z,14.45
2023-02-23T07:24:33.277Z,14.57
2023-02-23T07:26:59.933Z,14.71
2023-02-23T07:29:28.131Z,14.79
2023-02-23T07:31:55.383Z,14.62
2023-02-23T07:34:22.425Z,14.76
2023-02-23T07:36:49.290Z,15.07
2023-02-23T07:39:16.027Z,15.32
2023-02-23T07:41:42.719Z,15.53
2023-02-23T07:44:18.291Z,15.79
2023-02-23T07:46:46.387Z,16.05
2023-02-23T07:49:13.861Z,16.30
2023-02-23T07:51:41.020Z,16.65
2023-02-23T07:54:07.742Z,17.11
2023-02-23T07:56:35.400Z,17.59
2023-02-23T07:59:02.618Z,18.15
2023-02-23T08:01:29.360Z,18.91
2023-02-23T08:03:56.033Z,19.52
2023-02-23T08:06:22.711Z,19.85
2023-02-23T08:08:49.319Z,20.01
2023-02-23T08:11:16.047Z,19.78
2023-02-23T08:13:43.045Z,19.83
2023-02-23T08:16:09.798Z,19.52
2023-02-23T08:18:36.484Z,19.64
2023-02-23T08:21:04.841Z,19.95
2023-02-23T08:23:33.289Z,20.09
2023-02-23T08:26:01.300Z,20.37
2023-02-23T08:28:29.069Z,19.56
2023-02-23T08:30:55.795Z,18.69
2023-02-23T08:33:22.973Z,17.66
2023-02-23T08:35:49.655Z,17.37
2023-02-23T08:38:18.275Z,17.15
2023-02-23T08:40:45.311Z,16.99
2023-02-23T08:43:12.057Z,16.86
2023-02-23T08:45:39.542Z,16.73
2023-02-23T08:48:07.704Z,16.60
2023-02-23T08:50:34.602Z,16.44
2023-02-23T08:53:01.368Z,16.45
2023-02-23T08:55:28.021Z,16.76
2023-02-23T08:57:54.692Z,16.91
2023-02-23T09:00:21.805Z,16.79
2023-02-23T09:02:48.548Z,16.83
2023-02-23T09:05:15.935Z,16.75
2023-02-23T09:07:46.555Z,16.52
2023-02-23T09:10:20.191Z,16.26
2023-02-23T09:12:46.936Z,15.77
2023-02-23T09:15:13.808Z,15.82
2023-02-23T09:17:42.872Z,16.12
2023-02-23T09:20:13.489Z,16.24
2023-02-23T09:22:41.961Z,16.31
2023-02-23T09:25:10.374Z,16.35
2023-02-23T09:27:37.046Z,16.29
2023-02-23T09:30:04.462Z,16.24
2023-02-23T09:32:31.229Z,16.36
2023-02-23T09:34:58.049Z,16.43
2023-02-23T09:37:25.112Z,16.51
2023-02-23T09:39:51.857Z,16.62
2023-02-23T09:42:41.562Z,16.57
2023-02-23T09:45:27.103Z,16.73
2023-02-23T09:48:12.429Z,16.89
2023-02-23T09:50:42.076Z,16.83
2023-02-23T09:53:40.594Z,17.01
2023-02-23T09:56:14.239Z,17.04
2023-02-23T09:58:41.243Z,17.15
2023-02-23T10:01:27.254Z,17.37
2023-02-23T10:04:06.090Z,17.64
2023-02-23T10:06:34.522Z,17.64
2023-02-23T10:09:34.243Z,17.62
2023-02-23T10:12:00.868Z,17.88
2023-02-23T10:14:50.717Z,17.82
2023-02-23T10:17:17.574Z,17.78
2023-02-23T10:19:50.656Z,17.71
2023-02-23T10:22:19.623Z,17.66
2023-02-23T10:24:54.238Z,18.13
2023-02-23T10:27:23.482Z,18.28
2023-02-23T10:29:56.432Z,18.15
2023-02-23T10:32:50.927Z,17.74
2023-02-23T10:35:21.036Z,17.87
2023-02-23T10:37:49.094Z,17.89
2023-02-23T10:40:25.363Z,18.02
2023-02-23T10:42:52.741Z,17.92
2023-02-23T10:45:23.301Z,17.87
2023-02-23T10:47:53.142Z,17.78
2023-02-23T10:50:22.531Z,17.86
2023-02-23T10:52:52.658Z,17.87
2023-02-23T10:55:31.689Z,17.85
2023-02-23T10:58:04.554Z,17.65
2023-02-23T11:00:34.303Z,17.50
2023-02-23T11:03:03.231Z,17.32
2023-02-23T11:05:50.404Z,17.43
2023-02-23T11:08:31.599Z,17.60
2023-02-23T11:11:03.961Z,17.75
2023-02-23T11:13:40.104Z,17.81
2023-02-23T11:16:07.108Z,17.83
2023-02-23T11:18:33.949Z,17.87
2023-02-23T11:21:00.749Z,17.90
2023-02-23T11:23:35.797Z,17.77
2023-02-23T11:26:06.244Z,17.67
2023-02-23T11:28:41.641Z,17.48
2023-02-23T11:31:19.198Z,17.47
2023-02-23T11:33:47.220Z,17.46
2023-02-23T11:36:24.526Z,17.45
2023-02-23T11:39:23.474Z,17.36
2023-02-23T11:42:22.101Z,17.40
2023-02-23T11:45:03.216Z,17.44
2023-02-23T11:47:31.714Z,17.55
2023-02-23T11:49:59.412Z,17.62
2023-02-23T11:52:28.011Z,17.61
2023-02-23T11:54:56.628Z,17.40
2023-02-23T11:57:33.902Z,17.57
2023-02-23T12:00:08.666Z,17.72
2023-02-23T12:03:17.432Z,17.57
2023-02-23T12:05:53.189Z,17.62
2023-02-23T12:08:37.698Z,17.49
2023-02-23T12:11:10.396Z,17.40
2023-02-23T12:13:50.875Z,17.43
2023-02-23T12:16:28.788Z,17.37
2023-02-23T12:18:59.450Z,17.36
2023-02-23T12:21:38.091Z,17.44
2023-02-23T12:24:42.174Z,17.39
2023-02-23T12:27:16.404Z,17.33
2023-02-23T12:29:55.410Z,17.34
2023-02-23T12:32:27.924Z,17.30
2023-02-23T12:35:23.992Z,17.19
2023-02-23T12:38:06.578Z,17.15
2023-02-23T12:40:37.353Z,17.23
2023-02-23T12:43:52.837Z,17.23
2023-02-23T12:46:27.790Z,17.23
2023-02-23T12:49:03.130Z,17.19
2023-02-23T12:51:34.453Z,17.21
2023-02-23T12:54:01.720Z,17.17
2023-02-23T12:56:49.989Z,17.07
2023-02-23T12:59:19.242Z,17.15
2023-02-23T13:01:58.598Z,17.25
2023-02-23T13:04:47.165Z,17.30
2023-02-23T13:07:21.995Z,17.41
2023-02-23T13:10:13.064Z,17.55
2023-02-23T13:12:42.804Z,17.62
2023-02-23T13:15:20.089Z,17.82
2023-02-23T13:18:02.800Z,17.87
2023-02-23T13:20:36.978Z,18.06
2023-02-23T13:23:12.724Z,18.11
2023-02-23T13:26:11.499Z,18.15
2023-02-23T13:28:49.103Z,17.95
2023-02-23T13:31:26.475Z,18.12
2023-02-23T13:33:54.968Z,18.29
2023-02-23T13:36:22.465Z,18.30
2023-02-23T13:39:23.540Z,18.32
2023-02-23T13:42:14.445Z,18.39
2023-02-23T13:44:50.452Z,18.55
2023-02-23T13:47:38.679Z,18.43
2023-02-23T13:50:17.552Z,18.37
2023-02-23T13:52:46.305Z,18.36
2023-02-23T13:55:37.230Z,18.19
2023-02-23T13:58:28.717Z,17.81
2023-02-23T14:01:05.378Z,17.54
2023-02-23T14:03:36.652Z,17.53
2023-02-23T14:06:04.226Z,17.38
2023-02-23T14:08:37.437Z,17.53
2023-02-23T14:11:05.763Z,17.63
2023-02-23T14:13:35.091Z,17.75
2023-02-23T14:16:20.065Z,17.61
2023-02-23T14:19:12.301Z,17.70
2023-02-23T14:21:41.994Z,17.75
2023-02-23T14:24:19.396Z,17.70
2023-02-23T14:27:12.070Z,17.60
2023-02-23T14:30:10.886Z,17.64
2023-02-23T14:32:39.750Z,17.39
2023-02-23T14:35:32.230Z,17.50
2023-02-23T14:38:02.015Z,17.62
2023-02-23T14:40:34.795Z,17.78
2023-02-23T14:43:03.584Z,17.70
2023-02-23T14:45:38.773Z,17.75
2023-02-23T14:48:09.887Z,17.82
2023-02-23T14:50:38.978Z,17.77
2023-02-23T14:53:13.783Z,17.98
2023-02-23T14:55:43.328Z,18.10
2023-02-23T14:58:26.746Z,17.97
2023-02-23T15:00:53.428Z,18.12
2023-02-23T15:03:22.275Z,18.04
2023-02-23T15:05:58.662Z,18.11
2023-02-23T15:08:27.993Z,18.12
2023-02-23T15:11:07.329Z,17.98
2023-02-23T15:13:40.387Z,17.99
2023-02-23T15:16:16.288Z,17.89
2023-02-23T15:18:44.653Z,18.04
2023-02-23T15:21:21.207Z,17.94
2023-02-23T15:23:51.647Z,17.71
2023-02-23T15:26:25.457Z,17.52
2023-02-23T15:28:52.541Z,17.58
2023-02-23T15:31:19.859Z,17.52
2023-02-23T15:33:50.649Z,17.41
2023-02-23T15:36:30.816Z,17.24
2023-02-23T15:38:59.838Z,17.33
2023-02-23T15:41:32.464Z,17.32
2023-02-23T15:44:06.510Z,17.40
2023-02-23T15:46:34.253Z,17.32
2023-02-23T15:49:03.524Z,17.37
2023-02-23T15:51:37.626Z,17.34
2023-02-23T15:54:32.656Z,17.31
2023-02-23T15:57:06.220Z,17.22
2023-02-23T15:59:39.114Z,17.20
2023-02-23T16:02:17.884Z,17.16
2023-02-23T16:04:48.754Z,17.06
2023-02-23T16:07:17.134Z,17.01
2023-02-23T16:10:05.543Z,16.98
2023-02-23T16:12:37.157Z,16.95
2023-02-23T16:15:22.908Z,16.84
2023-02-23T16:17:58.322Z,16.69
2023-02-23T16:20:41.424Z,16.65
2023-02-23T16:23:33.430Z,16.65
2023-02-23T16:26:06.715Z,16.55
2023-02-23T16:28:35.798Z,16.44
2023-02-23T16:31:08.451Z,16.35
2023-02-23T16:33:37.876Z,16.35
2023-02-23T16:36:10.906Z,16.23
2023-02-23T16:38:40.341Z,16.18
2023-02-23T16:41:19.475Z,16.16
2023-02-23T16:43:48.889Z,16.19
2023-02-23T16:46:17.469Z,16.18
2023-02-23T16:48:44.437Z,16.16
2023-02-23T16:51:19.972Z,16.04
2023-02-23T16:53:46.675Z,16.00
2023-02-23T16:56:17.427Z,15.97
2023-02-23T16:58:53.656Z,15.92
2023-02-23T17:01:20.814Z,15.93
2023-02-23T17:03:53.043Z,15.93
2023-02-23T17:06:21.721Z,15.93
2023-02-23T17:08:57.675Z,15.88
2023-02-23T17:11:25.345Z,15.86
2023-02-23T17:13:52.060Z,15.89
2023-02-23T17:16:19.672Z,15.89
2023-02-23T17:18:46.642Z,15.86
2023-02-23T17:21:14.343Z,15.86
2023-02-23T17:23:50.762Z,15.82
2023-02-23T17:26:20.068Z,15.86
2023-02-23T17:28:47.298Z,15.84
2023-02-23T17:31:16.106Z,15.89
2023-02-23T17:33:43.657Z,15.78
2023-02-23T17:36:14.085Z,15.77
2023-02-23T17:38:44.480Z,15.78
2023-02-23T17:41:20.407Z,15.72
2023-02-23T17:43:47.474Z,15.73
2023-02-23T17:46:14.594Z,15.71
2023-02-23T17:48:44.605Z,15.72
2023-02-23T17:51:13.036Z,15.59
2023-02-23T17:53:40.456Z,15.59
2023-02-23T17:56:07.698Z,15.61
2023-02-23T17:58:35.015Z,15.62
2023-02-23T18:01:04.703Z,15.62
2023-02-23T18:03:33.207Z,15.62
2023-02-23T18:06:03.804Z,15.66
2023-02-23T18:08:30.691Z,15.70
2023-02-23T18:10:57.768Z,15.72
2023-02-23T18:13:25.697Z,15.73
2023-02-23T18:15:59.779Z,15.73
2023-02-23T18:18:26.640Z,15.70
2023-02-23T18:20:56.325Z,15.69
2023-02-23T18:23:24.412Z,15.70
2023-02-23T18:25:51.116Z,15.68
2023-02-23T18:28:18.431Z,15.68
2023-02-23T18:30:45.557Z,15.59
2023-02-23T18:33:13.072Z,15.55
2023-02-23T18:35:44.725Z,15.51
2023-02-23T18:38:12.715Z,15.46
2023-02-23T18:40:40.101Z,15.44
2023-02-23T18:43:08.105Z,15.42
2023-02-23T18:45:34.777Z,15.39
2023-02-23T18:48:01.408Z,15.41
2023-02-23T18:50:28.364Z,15.42
2023-02-23T18:52:56.359Z,15.43
2023-02-23T18:55:23.843Z,15.41
2023-02-23T18:57:52.580Z,15.42
2023-02-23T19:00:20.314Z,15.39
2023-02-23T19:02:47.749Z,15.29
2023-02-23T19:05:18.114Z,15.28
2023-02-23T19:07:45.629Z,15.24
2023-02-23T19:10:14.873Z,15.23
2023-02-23T19:12:42.087Z,15.23
2023-02-23T19:15:09.353Z,15.20
2023-02-23T19:17:36.241Z,15.19
2023-02-23T19:20:07.959Z,15.17
2023-02-23T19:22:34.849Z,15.15
2023-02-23T19:25:01.584Z,15.15
2023-02-23T19:27:28.303Z,15.16
2023-02-23T19:29:55.115Z,15.18
2023-02-23T19:32:21.957Z,15.18
2023-02-23T19:34:48.801Z,15.26
2023-02-23T19:37:15.462Z,15.28
2023-02-23T19:39:42.101Z,15.25
2023-02-23T19:42:09.127Z,15.24
2023-02-23T19:44:35.852Z,15.25
2023-02-23T19:47:02.533Z,15.26
2023-02-23T19:49:29.444Z,15.26
2023-02-23T19:51:57.725Z,15.28
2023-02-23T19:54:26.063Z,15.25
2023-02-23T19:56:53.081Z,15.25
2023-02-23T19:59:19.875Z,15.20
2023-02-23T20:01:46.589Z,15.19
2023-02-23T20:04:13.296Z,15.17
2023-02-23T20:06:46.846Z,15.16
2023-02-23T20:09:14.661Z,15.18
2023-02-23T20:11:42.548Z,15.18
2023-02-23T20:14:09.910Z,15.17
2023-02-23T20:16:36.852Z,15.12
2023-02-23T20:19:06.383Z,15.06
2023-02-23T20:21:33.873Z,15.07
2023-02-23T20:24:05.551Z,15.05
2023-02-23T20:26:36.871Z,15.05
2023-02-23T20:29:06.781Z,15.03
2023-02-23T20:31:35.545Z,15.03
2023-02-23T20:34:07.745Z,15.00
2023-02-23T20:36:34.395Z,14.98
2023-02-23T20:39:01.097Z,15.00
2023-02-23T20:41:28.748Z,15.02
2023-02-23T20:43:56.080Z,15.03
2023-02-23T20:46:23.015Z,15.08
2023-02-23T20:48:49.760Z,15.09
2023-02-23T20:51:19.068Z,15.10
2023-02-23T20:53:48.044Z,15.06
2023-02-23T20:56:17.922Z,15.01
2023-02-23T20:58:45.320Z,15.07
2023-02-23T21:01:18.289Z,14.99
2023-02-23T21:03:45.126Z,15.01
2023-02-23T21:06:11.831Z,14.90
2023-02-23T21:08:39.920Z,14.89
2023-02-23T21:11:08.762Z,14.84
2023-02-23T21:13:36.341Z,14.82
2023-02-23T21:16:03.358Z,14.80
2023-02-23T21:18:30.791Z,14.79
2023-02-23T21:21:06.690Z,14.89
2023-02-23T21:23:33.325Z,14.84
2023-02-23T21:26:07.023Z,14.77
2023-02-23T21:28:33.819Z,14.86
2023-02-23T21:31:00.495Z,14.84
2023-02-23T21:33:27.242Z,14.84
2023-02-23T21:35:58.556Z,14.84
2023-02-23T21:38:25.846Z,14.94
2023-02-23T21:40:52.686Z,14.82
2023-02-23T21:43:19.462Z,14.76
2023-02-23T21:45:46.690Z,14.88
2023-02-23T21:48:13.882Z,14.82
2023-02-23T21:50:40.625Z,14.77
2023-02-23T21:53:09.258Z,14.78
2023-02-23T21:55:38.557Z,14.79
2023-02-23T21:58:07.086Z,14.82
2023-02-23T22:00:35.643Z,14.86
2023-02-23T22:03:03.420Z,14.86
2023-02-23T22:05:30.360Z,14.88
2023-02-23T22:07:57.008Z,14.75
2023-02-23T22:10:24.173Z,14.80
2023-02-23T22:12:55.851Z,14.74
2023-02-23T22:15:30.073Z,14.70
2023-02-23T22:17:56.859Z,14.64
2023-02-23T22:20:23.497Z,14.77
2023-02-23T22:22:53.082Z,14.67
2023-02-23T22:25:20.347Z,14.74
2023-02-23T22:27:47.360Z,14.75
2023-02-23T22:30:15.249Z,14.72
2023-02-23T22:32:43.058Z,14.69
2023-02-23T22:35:11.102Z,14.60
2023-02-23T22:37:38.665Z,14.61
2023-02-23T22:40:16.422Z,14.61
2023-02-23T22:42:49.626Z,14.67
2023-02-23T22:45:17.912Z,14.73
2023-02-23T22:47:44.783Z,14.54
2023-02-23T22:50:13.986Z,14.53
2023-02-23T22:52:40.749Z,14.57
2023-02-23T22:55:08.000Z,14.59
2023-02-23T22:57:34.794Z,14.60
2023-02-23T23:00:11.338Z,14.59
2023-02-23T23:02:38.048Z,14.58
2023-02-23T23:05:05.131Z,14.61
2023-02-23T23:07:32.273Z,14.61
2023-02-23T23:10:02.348Z,14.57
2023-02-23T23:12:29.055Z,14.51
2023-02-23T23:14:56.555Z,14.51
2023-02-23T23:17:23.306Z,14.47
2023-02-23T23:19:50.100Z,14.43
2023-02-23T23:22:17.397Z,14.43
2023-02-23T23:24:46.010Z,14.39
2023-02-23T23:27:14.508Z,14.37
2023-02-23T23:29:45.587Z,14.35
2023-02-23T23:32:17.227Z,14.34
2023-02-23T23:34:47.888Z,14.36
2023-02-23T23:37:18.902Z,14.26
2023-02-23T23:39:46.069Z,14.20
2023-02-23T23:42:12.907Z,14.16
2023-02-23T23:44:39.577Z,14.15
2023-02-23T23:47:06.475Z,14.17
2023-02-23T23:49:37.855Z,14.07
2023-02-23T23:52:05.971Z,14.03
2023-02-23T23:54:39.133Z,13.99
2023-02-23T23:57:06.588Z,14.08
2023-02-23T23:59:34.945Z,14.06
